Weather at Flugplatz Triengen

Public forecast

Using degrees Celsius for public forecast. Weather courtesy of forecast.io.

Closest aviation weather report (METAR) to Flugplatz Triengen

Closest report is Emmen Air Base, 12.3 nm (22.8 km) SE. Retrieved 2021/03/04 16:20 UTC (19 minutes ago):

LSME 041620Z AUTO VRB02KT 9999NDV FEW075 SCT088 12/01 Q1018 RMK

Closest aviation forecast (TAF) to Flugplatz Triengen

Forecast is more than 6 hours old.

Closest forecast is Emmen Air Base, 12.3 nm (22.8 km) SE. Retrieved 2021/03/04 10:00 UTC (7 hours ago):

TAF LSME 040925Z 0410/0516 VRB02KT 9999 BKN090 TEMPO 0414/0420 SHRA PROB40 TEMPO 0416/0420 4000 SHRA FEW060TCU PROB40 TEMPO 0420/0516 SHRA BECMG 0509/0512 04006KT